sensor_id;sensor_type;location;lat;lon;timestamp;pressure;altitude;pressure_sealevel;temperature;humidity
10587;BME280;5341;47.606;7.576;2023-05-03T00:00:04;99450.22;;;19.09;48.06
10587;BME280;5341;47.606;7.576;2023-05-03T00:02:33;99448.81;;;19.07;48.17
10587;BME280;5341;47.606;7.576;2023-05-03T00:05:05;99449.84;;;19.06;48.20
10587;BME280;5341;47.606;7.576;2023-05-03T00:07:34;99450.31;;;19.02;48.07
10587;BME280;5341;47.606;7.576;2023-05-03T00:10:02;99445.28;;;18.99;48.15
10587;BME280;5341;47.606;7.576;2023-05-03T00:12:29;99449.28;;;18.97;48.17
10587;BME280;5341;47.606;7.576;2023-05-03T00:14:58;99459.53;;;18.95;48.13
10587;BME280;5341;47.606;7.576;2023-05-03T00:17:26;99459.97;;;18.92;48.11
10587;BME280;5341;47.606;7.576;2023-05-03T00:19:53;99451.41;;;18.88;48.02
10587;BME280;5341;47.606;7.576;2023-05-03T00:22:21;99462.47;;;18.87;47.98
10587;BME280;5341;47.606;7.576;2023-05-03T00:24:49;99461.28;;;18.83;48.08
10587;BME280;5341;47.606;7.576;2023-05-03T00:27:16;99462.53;;;18.80;47.90
10587;BME280;5341;47.606;7.576;2023-05-03T00:29:44;99457.53;;;18.77;47.96
10587;BME280;5341;47.606;7.576;2023-05-03T00:32:13;99456.09;;;18.74;48.00
10587;BME280;5341;47.606;7.576;2023-05-03T00:34:40;99458.19;;;18.72;48.05
10587;BME280;5341;47.606;7.576;2023-05-03T00:37:08;99457.00;;;18.68;47.99
10587;BME280;5341;47.606;7.576;2023-05-03T00:39:36;99453.66;;;18.66;47.89
10587;BME280;5341;47.606;7.576;2023-05-03T00:42:04;99452.19;;;18.64;47.94
10587;BME280;5341;47.606;7.576;2023-05-03T00:44:31;99458.03;;;18.61;47.83
10587;BME280;5341;47.606;7.576;2023-05-03T00:47:00;99458.25;;;18.59;47.77
10587;BME280;5341;47.606;7.576;2023-05-03T00:49:29;99454.31;;;18.55;47.75
10587;BME280;5341;47.606;7.576;2023-05-03T00:51:57;99458.28;;;18.53;47.99
10587;BME280;5341;47.606;7.576;2023-05-03T00:54:29;99452.69;;;18.48;47.96
10587;BME280;5341;47.606;7.576;2023-05-03T00:56:59;99451.47;;;18.43;48.00
10587;BME280;5341;47.606;7.576;2023-05-03T00:59:31;99456.69;;;18.38;48.00
10587;BME280;5341;47.606;7.576;2023-05-03T01:01:59;99447.34;;;18.34;47.92
10587;BME280;5341;47.606;7.576;2023-05-03T01:04:29;99455.06;;;18.31;48.05
10587;BME280;5341;47.606;7.576;2023-05-03T01:07:07;99449.00;;;18.29;47.83
10587;BME280;5341;47.606;7.576;2023-05-03T01:09:48;99451.34;;;18.25;47.65
10587;BME280;5341;47.606;7.576;2023-05-03T01:12:23;99452.81;;;18.21;47.54
10587;BME280;5341;47.606;7.576;2023-05-03T01:15:04;99448.66;;;18.19;47.52
10587;BME280;5341;47.606;7.576;2023-05-03T01:17:38;99439.28;;;18.14;47.60
10587;BME280;5341;47.606;7.576;2023-05-03T01:20:11;99437.84;;;18.12;47.63
10587;BME280;5341;47.606;7.576;2023-05-03T01:22:45;99439.94;;;18.10;47.67
10587;BME280;5341;47.606;7.576;2023-05-03T01:25:14;99438.50;;;18.07;47.60
10587;BME280;5341;47.606;7.576;2023-05-03T01:27:42;99440.59;;;18.05;47.75
10587;BME280;5341;47.606;7.576;2023-05-03T01:30:11;99444.75;;;18.01;47.71
10587;BME280;5341;47.606;7.576;2023-05-03T01:32:49;99441.66;;;17.98;47.96
10587;BME280;5341;47.606;7.576;2023-05-03T01:35:27;99430.44;;;17.94;47.69
10587;BME280;5341;47.606;7.576;2023-05-03T01:37:56;99435.41;;;17.91;47.59
10587;BME280;5341;47.606;7.576;2023-05-03T01:40:28;99437.50;;;17.89;47.74
10587;BME280;5341;47.606;7.576;2023-05-03T01:42:58;99434.41;;;17.85;47.60
10587;BME280;5341;47.606;7.576;2023-05-03T01:45:26;99429.22;;;17.83;47.43
10587;BME280;5341;47.606;7.576;2023-05-03T01:47:55;99438.38;;;17.82;47.68
10587;BME280;5341;47.606;7.576;2023-05-03T01:50:23;99432.31;;;17.80;47.63
10587;BME280;5341;47.606;7.576;2023-05-03T01:52:50;99431.72;;;17.78;47.59
10587;BME280;5341;47.606;7.576;2023-05-03T01:55:18;99429.22;;;17.77;47.70
10587;BME280;5341;47.606;7.576;2023-05-03T01:57:47;99429.44;;;17.75;47.66
10587;BME280;5341;47.606;7.576;2023-05-03T02:00:15;99432.34;;;17.74;47.63
10587;BME280;5341;47.606;7.576;2023-05-03T02:02:43;99428.22;;;17.71;47.73
10587;BME280;5341;47.606;7.576;2023-05-03T02:05:11;99423.84;;;17.70;47.67
10587;BME280;5341;47.606;7.576;2023-05-03T02:07:39;99423.16;;;17.68;47.74
10587;BME280;5341;47.606;7.576;2023-05-03T02:10:07;99417.38;;;17.65;47.47
10587;BME280;5341;47.606;7.576;2023-05-03T02:12:39;99423.19;;;17.62;47.47
10587;BME280;5341;47.606;7.576;2023-05-03T02:15:10;99414.47;;;17.60;47.43
10587;BME280;5341;47.606;7.576;2023-05-03T02:17:38;99415.53;;;17.58;47.59
10587;BME280;5341;47.606;7.576;2023-05-03T02:20:06;99421.31;;;17.55;47.46
10587;BME280;5341;47.606;7.576;2023-05-03T02:22:35;99421.75;;;17.52;47.42
10587;BME280;5341;47.606;7.576;2023-05-03T02:25:03;99422.81;;;17.51;47.28
10587;BME280;5341;47.606;7.576;2023-05-03T02:27:31;99421.34;;;17.49;47.55
10587;BME280;5341;47.606;7.576;2023-05-03T02:29:58;99418.88;;;17.47;47.67
10587;BME280;5341;47.606;7.576;2023-05-03T02:32:28;99419.06;;;17.46;47.56
10587;BME280;5341;47.606;7.576;2023-05-03T02:34:55;99415.72;;;17.44;47.53
10587;BME280;5341;47.606;7.576;2023-05-03T02:37:24;99417.81;;;17.42;47.34
10587;BME280;5341;47.606;7.576;2023-05-03T02:39:52;99419.69;;;17.41;47.62
10587;BME280;5341;47.606;7.576;2023-05-03T02:42:19;99422.59;;;17.40;47.44
10587;BME280;5341;47.606;7.576;2023-05-03T02:44:48;99414.72;;;17.38;47.23
10587;BME280;5341;47.606;7.576;2023-05-03T02:47:15;99414.94;;;17.37;47.45
10587;BME280;5341;47.606;7.576;2023-05-03T02:49:45;99416.19;;;17.34;47.31
10587;BME280;5341;47.606;7.576;2023-05-03T02:52:13;99420.13;;;17.32;47.51
10587;BME280;5341;47.606;7.576;2023-05-03T02:54:41;99413.25;;;17.29;47.56
10587;BME280;5341;47.606;7.576;2023-05-03T02:57:12;99413.69;;;17.26;47.53
10587;BME280;5341;47.606;7.576;2023-05-03T02:59:40;99414.13;;;17.23;47.12
10587;BME280;5341;47.606;7.576;2023-05-03T03:02:07;99418.06;;;17.20;47.33
10587;BME280;5341;47.606;7.576;2023-05-03T03:04:38;99424.69;;;17.18;47.25
10587;BME280;5341;47.606;7.576;2023-05-03T03:07:07;99424.28;;;17.14;47.31
10587;BME280;5341;47.606;7.576;2023-05-03T03:09:35;99417.44;;;17.12;47.19
10587;BME280;5341;47.606;7.576;2023-05-03T03:12:03;99412.47;;;17.09;47.30
10587;BME280;5341;47.606;7.576;2023-05-03T03:14:32;99414.50;;;17.07;47.26
10587;BME280;5341;47.606;7.576;2023-05-03T03:17:00;99414.94;;;17.04;47.42
10587;BME280;5341;47.606;7.576;2023-05-03T03:19:31;99421.59;;;17.01;47.28
10587;BME280;5341;47.606;7.576;2023-05-03T03:21:59;99419.09;;;16.99;47.26
10587;BME280;5341;47.606;7.576;2023-05-03T03:24:30;99418.69;;;16.96;47.28
10587;BME280;5341;47.606;7.576;2023-05-03T03:26:59;99424.50;;;16.93;47.37
10587;BME280;5341;47.606;7.576;2023-05-03T03:29:29;99423.03;;;16.90;47.22
10587;BME280;5341;47.606;7.576;2023-05-03T03:31:56;99414.53;;;16.87;47.66
10587;BME280;5341;47.606;7.576;2023-05-03T03:34:24;99425.72;;;16.84;47.35
10587;BME280;5341;47.606;7.576;2023-05-03T03:36:52;99420.75;;;16.81;47.58
10587;BME280;5341;47.606;7.576;2023-05-03T03:39:20;99419.28;;;16.78;47.22
10587;BME280;5341;47.606;7.576;2023-05-03T03:41:49;99421.56;;;16.75;47.39
10587;BME280;5341;47.606;7.576;2023-05-03T03:44:18;99421.97;;;16.72;47.30
10587;BME280;5341;47.606;7.576;2023-05-03T03:46:46;99421.56;;;16.68;47.39
10587;BME280;5341;47.606;7.576;2023-05-03T03:49:15;99420.28;;;16.64;47.52
10587;BME280;5341;47.606;7.576;2023-05-03T03:51:43;99418.00;;;16.61;47.44
10587;BME280;5341;47.606;7.576;2023-05-03T03:54:11;99421.09;;;16.58;47.04
10587;BME280;5341;47.606;7.576;2023-05-03T03:56:43;99420.66;;;16.54;47.33
10587;BME280;5341;47.606;7.576;2023-05-03T03:59:12;99424.41;;;16.53;47.48
10587;BME280;5341;47.606;7.576;2023-05-03T04:01:40;99418.38;;;16.51;47.29
10587;BME280;5341;47.606;7.576;2023-05-03T04:04:08;99426.69;;;16.50;47.18
10587;BME280;5341;47.606;7.576;2023-05-03T04:06:36;99426.91;;;16.48;47.23
10587;BME280;5341;47.606;7.576;2023-05-03T04:09:08;99430.59;;;16.47;47.07
10587;BME280;5341;47.606;7.576;2023-05-03T04:11:36;99432.69;;;16.45;47.09
10587;BME280;5341;47.606;7.576;2023-05-03T04:14:05;99439.13;;;16.44;47.07
10587;BME280;5341;47.606;7.576;2023-05-03T04:16:37;99439.34;;;16.42;47.04
10587;BME280;5341;47.606;7.576;2023-05-03T04:19:06;99431.44;;;16.41;46.77
10587;BME280;5341;47.606;7.576;2023-05-03T04:21:36;99437.03;;;16.39;47.12
10587;BME280;5341;47.606;7.576;2023-05-03T04:24:06;99439.94;;;16.38;47.17
10587;BME280;5341;47.606;7.576;2023-05-03T04:26:34;99438.28;;;16.37;47.11
10587;BME280;5341;47.606;7.576;2023-05-03T04:29:15;99438.66;;;16.34;47.48
10587;BME280;5341;47.606;7.576;2023-05-03T04:31:47;99442.63;;;16.31;47.06
10587;BME280;5341;47.606;7.576;2023-05-03T04:34:16;99442.00;;;16.29;47.30
10587;BME280;5341;47.606;7.576;2023-05-03T04:36:46;99445.72;;;16.28;47.11
10587;BME280;5341;47.606;7.576;2023-05-03T04:39:15;99444.06;;;16.27;47.41
10587;BME280;5341;47.606;7.576;2023-05-03T04:41:45;99443.25;;;16.27;47.14
10587;BME280;5341;47.606;7.576;2023-05-03T04:44:12;99447.59;;;16.28;47.01
10587;BME280;5341;47.606;7.576;2023-05-03T04:46:42;99448.63;;;16.27;47.00
10587;BME280;5341;47.606;7.576;2023-05-03T04:49:11;99448.63;;;16.27;47.21
10587;BME280;5341;47.606;7.576;2023-05-03T04:51:38;99454.25;;;16.25;47.12
10587;BME280;5341;47.606;7.576;2023-05-03T04:54:06;99451.53;;;16.25;46.99
10587;BME280;5341;47.606;7.576;2023-05-03T04:56:34;99454.44;;;16.24;47.13
10587;BME280;5341;47.606;7.576;2023-05-03T04:59:15;99460.66;;;16.24;47.22
10587;BME280;5341;47.606;7.576;2023-05-03T05:01:42;99455.44;;;16.23;47.22
10587;BME280;5341;47.606;7.576;2023-05-03T05:04:15;99464.59;;;16.22;47.06
10587;BME280;5341;47.606;7.576;2023-05-03T05:06:47;99460.00;;;16.22;47.40
10587;BME280;5341;47.606;7.576;2023-05-03T05:09:24;99459.19;;;16.22;47.26
10587;BME280;5341;47.606;7.576;2023-05-03T05:11:58;99471.84;;;16.21;47.33
10587;BME280;5341;47.606;7.576;2023-05-03T05:14:32;99479.13;;;16.21;47.10
10587;BME280;5341;47.606;7.576;2023-05-03T05:17:01;99480.16;;;16.20;47.43
10587;BME280;5341;47.606;7.576;2023-05-03T05:19:30;99480.16;;;16.20;47.14
10587;BME280;5341;47.606;7.576;2023-05-03T05:21:58;99468.53;;;16.19;47.30
10587;BME280;5341;47.606;7.576;2023-05-03T05:24:36;99474.75;;;16.20;47.31
10587;BME280;5341;47.606;7.576;2023-05-03T05:27:04;99483.06;;;16.18;47.30
10587;BME280;5341;47.606;7.576;2023-05-03T05:29:33;99488.44;;;16.18;47.54
10587;BME280;5341;47.606;7.576;2023-05-03T05:32:01;99492.81;;;16.19;47.47
10587;BME280;5341;47.606;7.576;2023-05-03T05:34:33;99491.78;;;16.20;47.39
10587;BME280;5341;47.606;7.576;2023-05-03T05:37:02;99494.69;;;16.19;47.59
10587;BME280;5341;47.606;7.576;2023-05-03T05:39:32;99494.47;;;16.20;47.44
10587;BME280;5341;47.606;7.576;2023-05-03T05:42:00;99498.22;;;16.19;47.55
10587;BME280;5341;47.606;7.576;2023-05-03T05:44:29;99502.78;;;16.19;47.41
10587;BME280;5341;47.606;7.576;2023-05-03T05:46:57;99501.94;;;16.18;47.43
10587;BME280;5341;47.606;7.576;2023-05-03T05:49:24;99495.50;;;16.19;47.31
10587;BME280;5341;47.606;7.576;2023-05-03T05:51:53;99491.78;;;16.20;47.44
10587;BME280;5341;47.606;7.576;2023-05-03T05:54:22;99488.03;;;16.21;47.15
10587;BME280;5341;47.606;7.576;2023-05-03T05:56:50;99489.53;;;16.24;47.43
10587;BME280;5341;47.606;7.576;2023-05-03T05:59:18;99492.03;;;16.25;47.57
10587;BME280;5341;47.606;7.576;2023-05-03T06:01:48;99480.19;;;16.26;47.49
10587;BME280;5341;47.606;7.576;2023-05-03T06:04:19;99480.81;;;16.28;47.54
10587;BME280;5341;47.606;7.576;2023-05-03T06:06:47;99471.47;;;16.31;47.37
10587;BME280;5341;47.606;7.576;2023-05-03T06:09:16;99473.97;;;16.32;47.37
10587;BME280;5341;47.606;7.576;2023-05-03T06:11:44;99478.13;;;16.35;47.48
10587;BME280;5341;47.606;7.576;2023-05-03T06:14:12;99472.56;;;16.36;47.73
10587;BME280;5341;47.606;7.576;2023-05-03T06:16:41;99478.59;;;16.38;47.70
10587;BME280;5341;47.606;7.576;2023-05-03T06:19:09;99468.41;;;16.40;47.36
10587;BME280;5341;47.606;7.576;2023-05-03T06:21:37;99470.69;;;16.44;47.67
10587;BME280;5341;47.606;7.576;2023-05-03T06:24:05;99471.31;;;16.46;47.67
10587;BME280;5341;47.606;7.576;2023-05-03T06:26:35;99475.28;;;16.50;47.70
10587;BME280;5341;47.606;7.576;2023-05-03T06:29:03;99471.34;;;16.52;47.50
10587;BME280;5341;47.606;7.576;2023-05-03T06:31:33;99473.63;;;16.55;47.38
10587;BME280;5341;47.606;7.576;2023-05-03T06:34:05;99474.06;;;16.59;47.33
10587;BME280;5341;47.606;7.576;2023-05-03T06:36:34;99475.34;;;16.63;47.56
10587;BME280;5341;47.606;7.576;2023-05-03T06:39:03;99469.53;;;16.66;47.35
10587;BME280;5341;47.606;7.576;2023-05-03T06:41:37;99466.44;;;16.69;47.50
10587;BME280;5341;47.606;7.576;2023-05-03T06:44:09;99465.00;;;16.73;47.64
10587;BME280;5341;47.606;7.576;2023-05-03T06:46:50;99464.59;;;16.76;47.47
10587;BME280;5341;47.606;7.576;2023-05-03T06:49:22;99470.19;;;16.81;47.68
10587;BME280;5341;47.606;7.576;2023-05-03T06:51:51;99454.44;;;16.85;47.92
10587;BME280;5341;47.606;7.576;2023-05-03T06:54:20;99453.81;;;16.89;47.56
10587;BME280;5341;47.606;7.576;2023-05-03T06:56:51;99456.72;;;16.94;47.93
10587;BME280;5341;47.606;7.576;2023-05-03T06:59:19;99448.00;;;16.99;47.92
10587;BME280;5341;47.606;7.576;2023-05-03T07:01:46;99444.25;;;17.07;47.76
10587;BME280;5341;47.606;7.576;2023-05-03T07:04:15;99441.75;;;17.12;48.05
10587;BME280;5341;47.606;7.576;2023-05-03T07:06:43;99440.09;;;17.17;48.28
10587;BME280;5341;47.606;7.576;2023-05-03T07:09:12;99431.38;;;17.22;48.32
10587;BME280;5341;47.606;7.576;2023-05-03T07:11:42;99435.31;;;17.26;48.43
10587;BME280;5341;47.606;7.576;2023-05-03T07:14:19;99433.63;;;17.32;48.02
10587;BME280;5341;47.606;7.576;2023-05-03T07:16:47;99429.28;;;17.37;48.25
10587;BME280;5341;47.606;7.576;2023-05-03T07:19:17;99416.56;;;17.44;48.16
10587;BME280;5341;47.606;7.576;2023-05-03T07:21:49;99424.47;;;17.52;48.01
10587;BME280;5341;47.606;7.576;2023-05-03T07:24:20;99414.47;;;17.60;48.24
10587;BME280;5341;47.606;7.576;2023-05-03T07:26:50;99412.34;;;17.68;47.94
10587;BME280;5341;47.606;7.576;2023-05-03T07:29:19;99414.88;;;17.76;47.87
10587;BME280;5341;47.606;7.576;2023-05-03T07:31:52;99410.28;;;17.83;47.72
10587;BME280;5341;47.606;7.576;2023-05-03T07:34:20;99405.88;;;17.89;47.64
10587;BME280;5341;47.606;7.576;2023-05-03T07:36:51;99407.31;;;17.98;47.83
10587;BME280;5341;47.606;7.576;2023-05-03T07:39:22;99408.13;;;18.05;48.00
10587;BME280;5341;47.606;7.576;2023-05-03T07:41:49;99412.44;;;18.13;47.77
10587;BME280;5341;47.606;7.576;2023-05-03T07:44:19;99409.72;;;18.20;47.67
10587;BME280;5341;47.606;7.576;2023-05-03T07:46:48;99416.13;;;18.25;47.92
10587;BME280;5341;47.606;7.576;2023-05-03T07:49:16;99411.53;;;18.32;48.38
10587;BME280;5341;47.606;7.576;2023-05-03T07:51:43;99409.59;;;18.39;47.94
10587;BME280;5341;47.606;7.576;2023-05-03T07:54:12;99413.94;;;18.47;47.55
10587;BME280;5341;47.606;7.576;2023-05-03T07:56:40;99409.50;;;18.53;47.81
10587;BME280;5341;47.606;7.576;2023-05-03T07:59:09;99414.53;;;18.56;47.59
10587;BME280;5341;47.606;7.576;2023-05-03T08:01:39;99413.03;;;18.60;47.15
10587;BME280;5341;47.606;7.576;2023-05-03T08:04:07;99413.03;;;18.66;47.55
10587;BME280;5341;47.606;7.576;2023-05-03T08:06:35;99403.78;;;18.74;47.52
10587;BME280;5341;47.606;7.576;2023-05-03T08:09:03;99403.75;;;18.81;47.88
10587;BME280;5341;47.606;7.576;2023-05-03T08:11:34;99400.56;;;18.90;47.23
10587;BME280;5341;47.606;7.576;2023-05-03T08:14:01;99402.75;;;19.00;47.60
10587;BME280;5341;47.606;7.576;2023-05-03T08:16:29;99394.97;;;19.10;47.60
10587;BME280;5341;47.606;7.576;2023-05-03T08:19:03;99404.03;;;19.22;47.19
10587;BME280;5341;47.606;7.576;2023-05-03T08:21:33;99402.47;;;19.33;47.62
10587;BME280;5341;47.606;7.576;2023-05-03T08:24:01;99412.22;;;19.41;46.71
10587;BME280;5341;47.606;7.576;2023-05-03T08:26:36;99400.06;;;19.43;46.40
10587;BME280;5341;47.606;7.576;2023-05-03T08:29:05;99403.41;;;19.45;46.53
10587;BME280;5341;47.606;7.576;2023-05-03T08:31:34;99391.44;;;19.53;47.52
10587;BME280;5341;47.606;7.576;2023-05-03T08:34:05;99397.25;;;19.56;46.20
10587;BME280;5341;47.606;7.576;2023-05-03T08:36:45;99383.00;;;19.61;46.13
10587;BME280;5341;47.606;7.576;2023-05-03T08:39:30;99391.91;;;19.68;47.43
10587;BME280;5341;47.606;7.576;2023-05-03T08:42:08;99392.28;;;19.72;45.69
10587;BME280;5341;47.606;7.576;2023-05-03T08:44:37;99394.78;;;19.73;45.15
10587;BME280;5341;47.606;7.576;2023-05-03T08:47:13;99387.47;;;19.74;45.10
10587;BME280;5341;47.606;7.576;2023-05-03T08:49:47;99391.41;;;19.78;44.84
10587;BME280;5341;47.606;7.576;2023-05-03T08:52:22;99394.84;;;19.85;45.53
10587;BME280;5341;47.606;7.576;2023-05-03T08:54:50;99410.91;;;19.86;45.11
10587;BME280;5341;47.606;7.576;2023-05-03T08:57:19;99400.44;;;19.90;45.10
10587;BME280;5341;47.606;7.576;2023-05-03T08:59:52;99403.88;;;19.97;45.37
10587;BME280;5341;47.606;7.576;2023-05-03T09:02:33;99405.47;;;20.05;45.23
10587;BME280;5341;47.606;7.576;2023-05-03T09:05:33;99401.25;;;20.09;44.90
10587;BME280;5341;47.606;7.576;2023-05-03T09:08:11;99398.28;;;20.10;44.80
10587;BME280;5341;47.606;7.576;2023-05-03T09:10:41;99393.84;;;20.16;45.11
10587;BME280;5341;47.606;7.576;2023-05-03T09:13:10;99392.09;;;20.22;45.38
10587;BME280;5341;47.606;7.576;2023-05-03T09:15:38;99394.72;;;20.28;45.16
10587;BME280;5341;47.606;7.576;2023-05-03T09:18:08;99397.81;;;20.32;44.91
10587;BME280;5341;47.606;7.576;2023-05-03T09:20:40;99405.66;;;20.40;46.17
10587;BME280;5341;47.606;7.576;2023-05-03T09:23:10;99400.53;;;20.50;46.64
10587;BME280;5341;47.606;7.576;2023-05-03T09:25:42;99407.41;;;20.64;46.13
10587;BME280;5341;47.606;7.576;2023-05-03T09:28:10;99398.47;;;20.75;45.06
10587;BME280;5341;47.606;7.576;2023-05-03T09:30:38;99407.13;;;20.84;44.26
10587;BME280;5341;47.606;7.576;2023-05-03T09:33:12;99396.97;;;20.91;43.93
10587;BME280;5341;47.606;7.576;2023-05-03T09:35:57;99403.72;;;21.00;44.39
10587;BME280;5341;47.606;7.576;2023-05-03T09:38:30;99401.94;;;21.06;44.57
10587;BME280;5341;47.606;7.576;2023-05-03T09:40:59;99398.06;;;21.14;43.88
10587;BME280;5341;47.606;7.576;2023-05-03T09:43:34;99400.44;;;21.22;43.38
10587;BME280;5341;47.606;7.576;2023-05-03T09:46:10;99397.38;;;21.30;42.83
10587;BME280;5341;47.606;7.576;2023-05-03T09:48:40;99386.63;;;21.35;42.21
10587;BME280;5341;47.606;7.576;2023-05-03T09:51:12;99381.28;;;21.40;42.59
10587;BME280;5341;47.606;7.576;2023-05-03T09:53:40;99389.44;;;21.52;42.17
10587;BME280;5341;47.606;7.576;2023-05-03T09:56:09;99387.19;;;21.60;41.61
10587;BME280;5341;47.606;7.576;2023-05-03T09:58:39;99390.41;;;21.69;42.62
10587;BME280;5341;47.606;7.576;2023-05-03T10:01:09;99383.25;;;21.80;41.87
10587;BME280;5341;47.606;7.576;2023-05-03T10:03:40;99384.28;;;21.90;42.06
10587;BME280;5341;47.606;7.576;2023-05-03T10:06:22;99381.78;;;22.01;42.68
10587;BME280;5341;47.606;7.576;2023-05-03T10:08:59;99377.66;;;22.10;41.35
10587;BME280;5341;47.606;7.576;2023-05-03T10:11:33;99377.28;;;22.18;41.36
10587;BME280;5341;47.606;7.576;2023-05-03T10:14:01;99376.88;;;22.26;40.81
10587;BME280;5341;47.606;7.576;2023-05-03T10:16:37;99379.13;;;22.29;41.06
10587;BME280;5341;47.606;7.576;2023-05-03T10:19:10;99378.13;;;22.35;41.25
10587;BME280;5341;47.606;7.576;2023-05-03T10:21:52;99371.56;;;22.48;40.96
10587;BME280;5341;47.606;7.576;2023-05-03T10:24:22;99370.34;;;22.56;40.68
10587;BME280;5341;47.606;7.576;2023-05-03T10:26:59;99358.56;;;22.67;40.62
10587;BME280;5341;47.606;7.576;2023-05-03T10:30:02;99366.84;;;22.89;40.62
10587;BME280;5341;47.606;7.576;2023-05-03T10:32:35;99354.19;;;22.99;39.89
10587;BME280;5341;47.606;7.576;2023-05-03T10:35:12;99350.22;;;23.07;40.39
10587;BME280;5341;47.606;7.576;2023-05-03T10:37:44;99341.38;;;23.17;40.46
10587;BME280;5341;47.606;7.576;2023-05-03T10:40:13;99338.31;;;23.30;40.73
10587;BME280;5341;47.606;7.576;2023-05-03T10:42:44;99333.81;;;23.41;41.08
10587;BME280;5341;47.606;7.576;2023-05-03T10:45:24;99335.63;;;23.52;39.63
10587;BME280;5341;47.606;7.576;2023-05-03T10:48:18;99326.50;;;23.63;39.56
10587;BME280;5341;47.606;7.576;2023-05-03T10:50:53;99326.13;;;23.76;39.44
10587;BME280;5341;47.606;7.576;2023-05-03T10:53:45;99323.44;;;23.81;39.70
10587;BME280;5341;47.606;7.576;2023-05-03T10:56:15;99313.72;;;23.90;39.43
10587;BME280;5341;47.606;7.576;2023-05-03T10:58:47;99318.53;;;24.05;39.25
10587;BME280;5341;47.606;7.576;2023-05-03T11:01:17;99312.63;;;24.13;38.67
10587;BME280;5341;47.606;7.576;2023-05-03T11:03:51;99309.09;;;24.18;38.68
10587;BME280;5341;47.606;7.576;2023-05-03T11:06:31;99304.56;;;24.29;39.03
10587;BME280;5341;47.606;7.576;2023-05-03T11:09:04;99301.72;;;24.45;38.91
10587;BME280;5341;47.606;7.576;2023-05-03T11:11:39;99302.41;;;24.58;38.62
10587;BME280;5341;47.606;7.576;2023-05-03T11:14:12;99303.53;;;24.62;38.21
10587;BME280;5341;47.606;7.576;2023-05-03T11:16:48;99297.31;;;24.71;38.38
10587;BME280;5341;47.606;7.576;2023-05-03T11:19:27;99299.31;;;24.81;38.40
10587;BME280;5341;47.606;7.576;2023-05-03T11:21:58;99290.63;;;24.89;38.58
10587;BME280;5341;47.606;7.576;2023-05-03T11:24:33;99292.09;;;25.02;38.33
10587;BME280;5341;47.606;7.576;2023-05-03T11:27:06;99292.13;;;25.07;37.82
10587;BME280;5341;47.606;7.576;2023-05-03T11:29:47;99292.19;;;25.17;37.58
10587;BME280;5341;47.606;7.576;2023-05-03T11:32:18;99281.50;;;25.16;38.89
10587;BME280;5341;47.606;7.576;2023-05-03T11:34:48;99285.63;;;25.18;38.88
10587;BME280;5341;47.606;7.576;2023-05-03T11:37:19;99278.00;;;25.20;39.90
10587;BME280;5341;47.606;7.576;2023-05-03T11:39:48;99276.38;;;25.24;39.11
10587;BME280;5341;47.606;7.576;2023-05-03T11:42:17;99278.91;;;25.41;38.60
10587;BME280;5341;47.606;7.576;2023-05-03T11:44:45;99271.63;;;25.62;38.19
10587;BME280;5341;47.606;7.576;2023-05-03T11:47:15;99273.88;;;25.75;38.54
10587;BME280;5341;47.606;7.576;2023-05-03T11:49:50;99273.09;;;25.90;37.11
10587;BME280;5341;47.606;7.576;2023-05-03T11:52:23;99269.56;;;25.99;38.22
10587;BME280;5341;47.606;7.576;2023-05-03T11:54:55;99268.19;;;26.02;39.00
10587;BME280;5341;47.606;7.576;2023-05-03T11:57:24;99269.56;;;25.99;38.88
10587;BME280;5341;47.606;7.576;2023-05-03T11:59:52;99270.69;;;26.14;37.55
10587;BME280;5341;47.606;7.576;2023-05-03T12:02:21;99270.19;;;26.32;36.09
10587;BME280;5341;47.606;7.576;2023-05-03T12:04:49;99263.09;;;26.41;37.29
10587;BME280;5341;47.606;7.576;2023-05-03T12:07:18;99261.97;;;26.47;37.67
10587;BME280;5341;47.606;7.576;2023-05-03T12:10:13;99257.59;;;26.62;36.89
10587;BME280;5341;47.606;7.576;2023-05-03T12:12:57;99249.63;;;26.80;36.41
10587;BME280;5341;47.606;7.576;2023-05-03T12:15:38;99245.50;;;26.83;36.93
10587;BME280;5341;47.606;7.576;2023-05-03T12:18:13;99246.06;;;26.80;37.92
10587;BME280;5341;47.606;7.576;2023-05-03T12:20:58;99243.59;;;26.78;38.03
10587;BME280;5341;47.606;7.576;2023-05-03T12:23:27;99241.94;;;26.82;38.14
10587;BME280;5341;47.606;7.576;2023-05-03T12:25:57;99235.38;;;26.78;38.42
10587;BME280;5341;47.606;7.576;2023-05-03T12:28:37;99235.88;;;26.85;37.70
10587;BME280;5341;47.606;7.576;2023-05-03T12:31:07;99227.91;;;27.09;37.42
10587;BME280;5341;47.606;7.576;2023-05-03T14:02:47;99103.38;;;29.75;33.00
10587;BME280;5341;47.606;7.576;2023-05-03T14:05:34;99099.81;;;29.74;33.69
10587;BME280;5341;47.606;7.576;2023-05-03T14:08:06;99101.75;;;29.74;33.42
10587;BME280;5341;47.606;7.576;2023-05-03T14:10:35;99094.44;;;29.83;32.71
10587;BME280;5341;47.606;7.576;2023-05-03T14:13:07;99092.19;;;29.85;31.46
10587;BME280;5341;47.606;7.576;2023-05-03T14:15:39;99090.47;;;29.89;31.50
10587;BME280;5341;47.606;7.576;2023-05-03T14:18:16;99085.22;;;29.74;31.43
10587;BME280;5341;47.606;7.576;2023-05-03T14:20:47;99087.00;;;29.65;33.21
10587;BME280;5341;47.606;7.576;2023-05-03T14:23:16;99084.03;;;29.61;33.16
10587;BME280;5341;47.606;7.576;2023-05-03T14:25:42;99082.53;;;29.69;33.13
10587;BME280;5341;47.606;7.576;2023-05-03T14:28:09;99078.06;;;29.73;32.69
10587;BME280;5341;47.606;7.576;2023-05-03T14:30:36;99082.47;;;29.74;33.14
10587;BME280;5341;47.606;7.576;2023-05-03T14:33:02;99079.09;;;29.77;32.98
10587;BME280;5341;47.606;7.576;2023-05-03T14:35:30;99078.22;;;29.82;32.57
10587;BME280;5341;47.606;7.576;2023-05-03T14:37:56;99079.03;;;29.82;32.00
10587;BME280;5341;47.606;7.576;2023-05-03T14:40:23;99081.34;;;29.75;32.70
10587;BME280;5341;47.606;7.576;2023-05-03T14:42:49;99073.81;;;29.81;29.74
10587;BME280;5341;47.606;7.576;2023-05-03T14:45:16;99078.28;;;29.76;31.89
10587;BME280;5341;47.606;7.576;2023-05-03T14:47:43;99070.41;;;29.51;31.69
10587;BME280;5341;47.606;7.576;2023-05-03T14:50:10;99071.78;;;29.30;31.19
10587;BME280;5341;47.606;7.576;2023-05-03T14:52:37;99075.16;;;29.08;30.77
10587;BME280;5341;47.606;7.576;2023-05-03T14:55:06;99067.41;;;28.86;31.64
10587;BME280;5341;47.606;7.576;2023-05-03T14:57:32;99071.09;;;28.76;31.78